Time;durP1;ratioP1;P1;durP2;ratioP2;P2;SDS_P1;SDS_P2;PMS_P1;PMS_P2;Temp;Humidity;BMP_temperature;BMP_pressure;BME280_temperature;BME280_humidity;BME280_pressure;Samples;Min_cycle;Max_cycle;Signal;HPM_P1;HPM_P2
2022/04/15 00:01:32;;;;;;;2.20;2.10;;;;;;;;;;5022173;28;20251;-66
2022/04/15 00:04:21;;;;;;;1.80;1.63;;;;;;;;;;5024517;28;20216;-66
2022/04/15 00:07:08;;;;;;;2.20;2.10;;;;;;;;;;5024189;28;20229;-66
2022/04/15 00:09:54;;;;;;;1.97;1.87;;;;;;;;;;5021791;28;20212;-66
2022/04/15 00:12:41;;;;;;;2.10;2.00;;;;;;;;;;5023291;28;20700;-66
2022/04/15 00:15:29;;;;;;;1.70;1.60;;;;;;;;;;5023653;28;20292;-66
2022/04/15 00:18:15;;;;;;;1.60;1.50;;;;;;;;;;5027383;28;20299;-66
2022/04/15 00:21:04;;;;;;;2.00;1.90;;;;;;;;;;5022634;28;20262;-66
2022/04/15 00:23:56;;;;;;;1.77;1.67;;;;;;;;;;5018694;28;20626;-66
2022/04/15 00:26:43;;;;;;;1.53;1.43;;;;;;;;;;5021544;28;20210;-66
2022/04/15 00:29:30;;;;;;;1.77;1.67;;;;;;;;;;5021622;28;20291;-66
2022/04/15 00:32:17;;;;;;;1.87;1.77;;;;;;;;;;5018173;28;20204;-66
2022/04/15 00:35:04;;;;;;;2.00;1.90;;;;;;;;;;5022975;28;20238;-66
2022/04/15 00:37:52;;;;;;;1.33;1.33;;;;;;;;;;5016658;28;20851;-66
2022/04/15 00:40:39;;;;;;;1.80;1.70;;;;;;;;;;5017189;28;20302;-66
2022/04/15 00:43:26;;;;;;;1.60;1.60;;;;;;;;;;5020163;28;20238;-66
2022/04/15 00:46:13;;;;;;;1.53;1.43;;;;;;;;;;5018510;28;20269;-66
2022/04/15 00:49:00;;;;;;;1.70;1.60;;;;;;;;;;5019134;28;20289;-66
2022/04/15 00:51:50;;;;;;;1.70;1.60;;;;;;;;;;5023886;28;20212;-66
2022/04/15 00:54:39;;;;;;;1.67;1.57;;;;;;;;;;5021302;28;20259;-66
2022/04/15 00:57:27;;;;;;;2.03;1.93;;;;;;;;;;5021624;28;20266;-66
2022/04/15 01:00:15;;;;;;;1.23;1.23;;;;;;;;;;5022300;28;20314;-66
2022/04/15 01:03:04;;;;;;;1.53;1.43;;;;;;;;;;5021435;28;20770;-65
2022/04/15 01:06:00;;;;;;;1.53;1.43;;;;;;;;;;5020165;28;20278;-65
2022/04/15 01:08:48;;;;;;;1.23;1.23;;;;;;;;;;5023079;28;20232;-64
2022/04/15 01:11:37;;;;;;;1.20;1.20;;;;;;;;;;5018778;28;20237;-65
2022/04/15 01:14:25;;;;;;;1.30;1.30;;;;;;;;;;5025647;28;20200;-65
2022/04/15 01:17:12;;;;;;;1.37;1.33;;;;;;;;;;5030728;28;20687;-64
2022/04/15 01:19:59;;;;;;;1.60;1.50;;;;;;;;;;5028236;28;20302;-64
2022/04/15 01:22:47;;;;;;;1.30;1.30;;;;;;;;;;5024517;28;20330;-64
2022/04/15 01:25:35;;;;;;;1.37;1.37;;;;;;;;;;5028594;28;20233;-64
2022/04/15 01:28:22;;;;;;;1.27;1.27;;;;;;;;;;5022473;28;20212;-64
2022/04/15 01:31:09;;;;;;;1.43;1.40;;;;;;;;;;5022246;28;20295;-65
2022/04/15 01:33:56;;;;;;;1.07;1.07;;;;;;;;;;5024648;28;20298;-64
2022/04/15 01:36:43;;;;;;;1.40;1.40;;;;;;;;;;5028279;28;20215;-65
2022/04/15 01:39:31;;;;;;;2.00;1.30;;;;;;;;;;5026423;28;20337;-64
2022/04/15 01:42:19;;;;;;;1.10;1.10;;;;;;;;;;5025961;28;20792;-64
2022/04/15 01:45:09;;;;;;;1.30;1.30;;;;;;;;;;5025889;28;20259;-64
2022/04/15 01:47:55;;;;;;;1.33;1.27;;;;;;;;;;5025148;28;20247;-64
2022/04/15 01:50:42;;;;;;;1.20;1.20;;;;;;;;;;5027533;28;20217;-65
2022/04/15 01:53:29;;;;;;;0.97;0.97;;;;;;;;;;5027128;28;20792;-65
2022/04/15 01:56:16;;;;;;;1.10;1.10;;;;;;;;;;5026956;28;20217;-64
2022/04/15 01:59:09;;;;;;;0.77;0.77;;;;;;;;;;5029461;28;20220;-64
2022/04/15 02:01:56;;;;;;;1.07;1.07;;;;;;;;;;5028546;28;20738;-64
2022/04/15 02:04:43;;;;;;;1.20;1.10;;;;;;;;;;5027642;28;20619;-65
2022/04/15 02:07:29;;;;;;;0.93;0.93;;;;;;;;;;5026530;28;20242;-64
2022/04/15 02:10:16;;;;;;;1.00;1.00;;;;;;;;;;5030705;28;20203;-64
2022/04/15 02:13:03;;;;;;;0.97;0.97;;;;;;;;;;5025944;28;20747;-64
2022/04/15 02:15:52;;;;;;;0.93;0.93;;;;;;;;;;5019207;28;20285;-64
2022/04/15 02:18:39;;;;;;;0.80;0.80;;;;;;;;;;5025269;28;20741;-64
2022/04/15 02:21:26;;;;;;;0.90;0.90;;;;;;;;;;5029835;28;20312;-64
2022/04/15 02:24:14;;;;;;;0.60;0.60;;;;;;;;;;5025855;28;20255;-64
2022/04/15 02:27:00;;;;;;;0.70;0.70;;;;;;;;;;5026169;28;20209;-65
2022/04/15 02:29:47;;;;;;;0.93;0.93;;;;;;;;;;5025553;28;20683;-65
2022/04/15 02:32:36;;;;;;;0.90;0.90;;;;;;;;;;5021325;28;20279;-64
2022/04/15 02:35:23;;;;;;;0.87;0.87;;;;;;;;;;5024274;28;20305;-64
2022/04/15 02:38:10;;;;;;;0.77;0.77;;;;;;;;;;5021939;28;20254;-64
2022/04/15 02:40:57;;;;;;;0.70;0.70;;;;;;;;;;5021013;28;20294;-64
2022/04/15 02:43:44;;;;;;;0.80;0.80;;;;;;;;;;5025268;28;20208;-64
2022/04/15 02:46:31;;;;;;;0.70;0.70;;;;;;;;;;5024071;28;20299;-64
2022/04/15 02:49:19;;;;;;;0.70;0.70;;;;;;;;;;5019251;28;20264;-64
2022/04/15 02:52:06;;;;;;;0.80;0.80;;;;;;;;;;5020354;28;20241;-64
2022/04/15 02:54:53;;;;;;;0.70;0.70;;;;;;;;;;5023118;28;20296;-64
2022/04/15 02:57:40;;;;;;;0.80;0.80;;;;;;;;;;5022443;28;20303;-64
2022/04/15 03:00:27;;;;;;;0.83;0.63;;;;;;;;;;5023760;28;20712;-64
2022/04/15 03:03:14;;;;;;;1.33;0.77;;;;;;;;;;5020609;28;20204;-64
2022/04/15 03:06:03;;;;;;;0.60;0.60;;;;;;;;;;5021843;28;20299;-64
2022/04/15 03:08:50;;;;;;;0.70;0.70;;;;;;;;;;5023026;28;20208;-64
2022/04/15 03:11:38;;;;;;;0.70;0.70;;;;;;;;;;5020215;28;20282;-64
2022/04/15 03:14:25;;;;;;;0.73;0.73;;;;;;;;;;5024888;28;20550;-64
2022/04/15 03:17:12;;;;;;;0.70;0.70;;;;;;;;;;5026394;28;20742;-64
2022/04/15 03:20:02;;;;;;;0.63;0.63;;;;;;;;;;5023825;28;20646;-64
2022/04/15 03:22:50;;;;;;;0.70;0.70;;;;;;;;;;5025358;28;20339;-64
2022/04/15 03:25:37;;;;;;;0.70;0.70;;;;;;;;;;5017027;28;20236;-64
2022/04/15 03:28:24;;;;;;;0.60;0.60;;;;;;;;;;5017448;28;20295;-64
2022/04/15 03:31:11;;;;;;;0.67;0.67;;;;;;;;;;5023283;28;20259;-65
2022/04/15 03:33:58;;;;;;;0.83;0.83;;;;;;;;;;5020496;28;20220;-64
2022/04/15 03:36:46;;;;;;;0.57;0.57;;;;;;;;;;5022688;28;20649;-64
2022/04/15 03:39:35;;;;;;;0.70;0.70;;;;;;;;;;5021307;28;20212;-65
2022/04/15 03:42:22;;;;;;;0.60;0.60;;;;;;;;;;5022450;28;20227;-64
2022/04/15 03:45:11;;;;;;;0.57;0.57;;;;;;;;;;5024736;28;20209;-65
2022/04/15 03:47:58;;;;;;;0.70;0.70;;;;;;;;;;5021677;28;20207;-64
2022/04/15 03:50:45;;;;;;;0.80;0.80;;;;;;;;;;5021377;28;20204;-64
2022/04/15 03:53:32;;;;;;;0.60;0.60;;;;;;;;;;5018464;28;20648;-65
2022/04/15 03:56:20;;;;;;;0.70;0.70;;;;;;;;;;5025246;28;20209;-64
2022/04/15 03:59:08;;;;;;;0.83;0.83;;;;;;;;;;5023640;28;20217;-64
2022/04/15 04:01:55;;;;;;;0.77;0.77;;;;;;;;;;5022316;28;20595;-64
2022/04/15 04:04:41;;;;;;;0.80;0.80;;;;;;;;;;5022922;28;20606;-64
2022/04/15 04:07:28;;;;;;;0.70;0.70;;;;;;;;;;5026319;28;20370;-64
2022/04/15 04:10:16;;;;;;;0.87;0.87;;;;;;;;;;5025078;28;20642;-64
2022/04/15 04:13:05;;;;;;;0.70;0.70;;;;;;;;;;5021591;28;20220;-64
2022/04/15 04:15:52;;;;;;;0.77;0.77;;;;;;;;;;5016869;28;20589;-64
2022/04/15 04:18:39;;;;;;;0.83;0.83;;;;;;;;;;5021562;28;20212;-64
2022/04/15 04:21:26;;;;;;;0.60;0.60;;;;;;;;;;5026660;28;20311;-64
2022/04/15 04:24:13;;;;;;;0.67;0.67;;;;;;;;;;5022096;28;20216;-65
2022/04/15 04:27:00;;;;;;;0.87;0.77;;;;;;;;;;5022131;28;20668;-64
2022/04/15 04:29:48;;;;;;;0.80;0.80;;;;;;;;;;5024340;28;20256;-64
2022/04/15 04:32:36;;;;;;;0.80;0.80;;;;;;;;;;5018667;28;20212;-64
2022/04/15 04:35:23;;;;;;;0.90;0.90;;;;;;;;;;5021062;28;20346;-64
2022/04/15 04:38:10;;;;;;;0.70;0.70;;;;;;;;;;5018663;28;20255;-64
2022/04/15 04:40:56;;;;;;;1.00;1.00;;;;;;;;;;5019965;28;20225;-64
2022/04/15 04:43:43;;;;;;;0.80;0.80;;;;;;;;;;5019970;28;20290;-64
2022/04/15 04:46:32;;;;;;;1.00;1.00;;;;;;;;;;5019344;28;20234;-64
2022/04/15 04:49:19;;;;;;;1.00;1.00;;;;;;;;;;5019426;28;20307;-64
2022/04/15 04:52:07;;;;;;;1.10;1.10;;;;;;;;;;5021032;28;20298;-64
2022/04/15 04:54:54;;;;;;;0.87;0.87;;;;;;;;;;5016918;28;20287;-64
2022/04/15 04:57:42;;;;;;;1.20;1.10;;;;;;;;;;5023793;28;20258;-64
2022/04/15 05:00:29;;;;;;;1.00;1.00;;;;;;;;;;5021839;28;20235;-64
2022/04/15 05:03:17;;;;;;;1.10;1.10;;;;;;;;;;5020191;28;20248;-64
2022/04/15 05:06:04;;;;;;;1.10;1.10;;;;;;;;;;5026133;28;20223;-64
2022/04/15 05:08:51;;;;;;;1.00;1.00;;;;;;;;;;5024135;28;20209;-65
2022/04/15 05:11:38;;;;;;;0.90;0.90;;;;;;;;;;5019392;28;20610;-64
2022/04/15 05:14:25;;;;;;;1.00;1.00;;;;;;;;;;5025799;28;20208;-64
2022/04/15 05:17:12;;;;;;;1.10;1.10;;;;;;;;;;5020078;28;20208;-64
2022/04/15 05:20:00;;;;;;;1.10;1.10;;;;;;;;;;5021012;28;20247;-64
2022/04/15 05:22:47;;;;;;;0.97;0.97;;;;;;;;;;5020094;28;20261;-64
2022/04/15 05:25:34;;;;;;;1.37;1.27;;;;;;;;;;5021290;28;20283;-64
2022/04/15 05:28:21;;;;;;;1.33;1.23;;;;;;;;;;5016687;28;20287;-64
2022/04/15 05:31:08;;;;;;;1.37;1.33;;;;;;;;;;5019841;28;20208;-64
2022/04/15 05:33:55;;;;;;;1.00;1.00;;;;;;;;;;5019450;28;20298;-64
2022/04/15 05:36:44;;;;;;;1.07;0.97;;;;;;;;;;5020948;28;20217;-64
2022/04/15 05:39:31;;;;;;;1.30;1.20;;;;;;;;;;5020473;28;20674;-64
2022/04/15 05:42:17;;;;;;;1.10;1.10;;;;;;;;;;5023405;28;20776;-64
2022/04/15 05:45:05;;;;;;;1.10;1.10;;;;;;;;;;5017948;28;20302;-64
2022/04/15 05:47:57;;;;;;;1.20;1.20;;;;;;;;;;5020068;28;20637;-64
2022/04/15 05:50:44;;;;;;;1.00;1.00;;;;;;;;;;5017551;28;20212;-65
2022/04/15 05:53:32;;;;;;;1.00;1.00;;;;;;;;;;5021014;28;20271;-64
2022/04/15 05:56:19;;;;;;;1.20;1.20;;;;;;;;;;5020133;28;20209;-64
2022/04/15 05:59:07;;;;;;;1.47;1.37;;;;;;;;;;5019952;28;20236;-65
2022/04/15 06:01:53;;;;;;;1.30;1.20;;;;;;;;;;5020726;28;20228;-64
2022/04/15 06:04:40;;;;;;;1.13;1.10;;;;;;;;;;5026523;28;20295;-64
2022/04/15 06:07:27;;;;;;;1.47;1.37;;;;;;;;;;5023691;28;20217;-64
2022/04/15 06:10:15;;;;;;;1.20;1.20;;;;;;;;;;5023033;28;20293;-64
2022/04/15 06:13:06;;;;;;;1.20;1.20;;;;;;;;;;5025233;28;20856;-65
2022/04/15 06:15:53;;;;;;;1.30;1.27;;;;;;;;;;5030872;28;20735;-64
2022/04/15 06:18:40;;;;;;;1.00;1.00;;;;;;;;;;5024197;28;20699;-65
2022/04/15 06:21:27;;;;;;;1.17;1.17;;;;;;;;;;5027944;28;20358;-64
2022/04/15 06:24:14;;;;;;;1.00;1.00;;;;;;;;;;5023438;28;20318;-65
2022/04/15 06:27:03;;;;;;;0.77;0.77;;;;;;;;;;5023193;28;20294;-65
2022/04/15 06:29:50;;;;;;;1.33;1.20;;;;;;;;;;5015037;28;20213;-65
2022/04/15 06:32:37;;;;;;;0.90;0.90;;;;;;;;;;5020820;28;20686;-64
2022/04/15 06:35:24;;;;;;;1.17;1.17;;;;;;;;;;5022516;28;20213;-65
2022/04/15 06:38:11;;;;;;;1.00;1.00;;;;;;;;;;5024308;28;20630;-65
2022/04/15 06:40:58;;;;;;;0.80;0.80;;;;;;;;;;5020962;28;20335;-65
2022/04/15 06:43:46;;;;;;;1.10;1.10;;;;;;;;;;5020301;28;20737;-65
2022/04/15 06:46:33;;;;;;;0.90;0.90;;;;;;;;;;5022294;28;20560;-65
2022/04/15 06:49:20;;;;;;;0.83;0.83;;;;;;;;;;5025458;28;20214;-65
2022/04/15 06:52:07;;;;;;;1.00;1.00;;;;;;;;;;5022541;28;20320;-65
2022/04/15 06:54:54;;;;;;;0.80;0.80;;;;;;;;;;5023612;28;20800;-65
2022/04/15 06:57:42;;;;;;;0.90;0.90;;;;;;;;;;5023939;28;20271;-65
2022/04/15 07:00:30;;;;;;;1.10;1.00;;;;;;;;;;5024673;28;20237;-64
2022/04/15 07:03:17;;;;;;;0.80;0.80;;;;;;;;;;5025293;28;20267;-65
2022/04/15 07:06:04;;;;;;;0.90;0.90;;;;;;;;;;5022581;28;20632;-65
2022/04/15 07:08:51;;;;;;;0.90;0.90;;;;;;;;;;5021142;28;20348;-65
2022/04/15 07:11:37;;;;;;;0.93;0.93;;;;;;;;;;5023681;28;20296;-65
2022/04/15 07:14:24;;;;;;;1.00;1.00;;;;;;;;;;5023923;28;20240;-64
2022/04/15 07:17:13;;;;;;;0.93;0.93;;;;;;;;;;5027336;28;20669;-65
2022/04/15 07:20:00;;;;;;;1.17;1.17;;;;;;;;;;5021597;28;20206;-65
2022/04/15 07:22:47;;;;;;;0.87;0.87;;;;;;;;;;5019456;28;20360;-65
2022/04/15 07:25:34;;;;;;;0.90;0.90;;;;;;;;;;5022183;28;20836;-65
2022/04/15 07:28:21;;;;;;;1.03;1.00;;;;;;;;;;5021550;28;20208;-64
2022/04/15 07:31:08;;;;;;;1.30;1.20;;;;;;;;;;5020484;28;20693;-64
2022/04/15 07:33:56;;;;;;;1.57;1.00;;;;;;;;;;5018386;28;20381;-64
2022/04/15 07:36:45;;;;;;;0.90;0.90;;;;;;;;;;5019737;28;20214;-64
2022/04/15 07:39:32;;;;;;;1.07;1.07;;;;;;;;;;5022496;28;20214;-64
2022/04/15 07:42:19;;;;;;;2.17;1.10;;;;;;;;;;5022489;28;20272;-65
2022/04/15 07:45:08;;;;;;;0.80;0.80;;;;;;;;;;5016926;28;20292;-64
2022/04/15 07:47:55;;;;;;;1.30;1.20;;;;;;;;;;5018279;28;20293;-64
2022/04/15 07:50:45;;;;;;;1.00;1.00;;;;;;;;;;5021751;28;20559;-65
2022/04/15 07:53:32;;;;;;;0.90;0.90;;;;;;;;;;5017455;28;20250;-64
2022/04/15 07:56:19;;;;;;;1.43;0.90;;;;;;;;;;5020793;28;20212;-64
2022/04/15 07:59:07;;;;;;;0.80;0.80;;;;;;;;;;5023420;28;20241;-64
2022/04/15 08:01:54;;;;;;;1.00;1.00;;;;;;;;;;5021770;28;20254;-64
2022/04/15 08:04:41;;;;;;;0.60;0.60;;;;;;;;;;5019037;28;20233;-65
2022/04/15 08:07:30;;;;;;;1.10;1.00;;;;;;;;;;5024323;28;20220;-64
2022/04/15 08:10:17;;;;;;;0.80;0.80;;;;;;;;;;5020961;28;20267;-64
2022/04/15 08:13:04;;;;;;;0.77;0.77;;;;;;;;;;5021093;28;20217;-64
2022/04/15 08:15:53;;;;;;;0.80;0.80;;;;;;;;;;5016985;28;20243;-64
2022/04/15 08:18:40;;;;;;;1.20;1.20;;;;;;;;;;5017193;28;20739;-65
2022/04/15 08:21:27;;;;;;;1.20;1.10;;;;;;;;;;5014994;28;20233;-65
2022/04/15 08:24:16;;;;;;;1.00;1.00;;;;;;;;;;5019070;28;20283;-65
2022/04/15 08:27:03;;;;;;;0.80;0.80;;;;;;;;;;5017548;28;20723;-65
2022/04/15 08:29:50;;;;;;;0.93;0.93;;;;;;;;;;5017770;28;20207;-64
2022/04/15 08:32:37;;;;;;;0.80;0.80;;;;;;;;;;5017434;28;20211;-64
2022/04/15 08:35:24;;;;;;;0.60;0.60;;;;;;;;;;5021803;28;20212;-64
2022/04/15 08:38:13;;;;;;;1.00;1.00;;;;;;;;;;5018329;28;20307;-65
2022/04/15 08:41:02;;;;;;;0.60;0.60;;;;;;;;;;5026848;28;20218;-65
2022/04/15 08:43:49;;;;;;;0.83;0.83;;;;;;;;;;5017092;28;20243;-65
2022/04/15 08:46:36;;;;;;;0.97;0.97;;;;;;;;;;5024707;28;20215;-65
2022/04/15 08:49:25;;;;;;;1.00;1.00;;;;;;;;;;5021635;28;20745;-65
2022/04/15 08:52:15;;;;;;;1.50;1.00;;;;;;;;;;5021864;28;20734;-65
2022/04/15 08:55:02;;;;;;;1.47;0.80;;;;;;;;;;5020392;28;20294;-64
2022/04/15 08:57:51;;;;;;;0.80;0.80;;;;;;;;;;5020206;28;20313;-65
2022/04/15 09:00:38;;;;;;;0.80;0.80;;;;;;;;;;5022437;28;20299;-64
2022/04/15 09:03:26;;;;;;;0.93;0.80;;;;;;;;;;5022903;28;20242;-65
2022/04/15 09:06:16;;;;;;;0.70;0.70;;;;;;;;;;5018017;28;20211;-64
2022/04/15 09:09:06;;;;;;;0.80;0.80;;;;;;;;;;5021921;28;20244;-64
2022/04/15 09:11:53;;;;;;;0.87;0.87;;;;;;;;;;5017709;28;20720;-65
2022/04/15 09:14:41;;;;;;;1.47;0.70;;;;;;;;;;5015836;28;20395;-66
2022/04/15 09:17:29;;;;;;;0.80;0.80;;;;;;;;;;5014703;28;20222;-65
2022/04/15 09:20:17;;;;;;;0.70;0.70;;;;;;;;;;5017151;28;20211;-65
2022/04/15 09:23:09;;;;;;;0.60;0.60;;;;;;;;;;5017442;28;20314;-65
2022/04/15 09:25:56;;;;;;;0.70;0.70;;;;;;;;;;5020807;28;20359;-64
2022/04/15 09:28:43;;;;;;;0.70;0.70;;;;;;;;;;5015315;28;20616;-65
2022/04/15 09:31:31;;;;;;;0.70;0.70;;;;;;;;;;5023196;28;20303;-64
2022/04/15 09:34:18;;;;;;;0.77;0.77;;;;;;;;;;5012511;28;20284;-64
2022/04/15 09:37:07;;;;;;;0.70;0.70;;;;;;;;;;5022017;28;20302;-64
2022/04/15 09:40:08;;;;;;;0.97;0.80;;;;;;;;;;5021470;28;20211;-65
2022/04/15 09:42:58;;;;;;;0.70;0.70;;;;;;;;;;5022603;28;20231;-65
2022/04/15 09:45:46;;;;;;;0.60;0.60;;;;;;;;;;5024298;28;20209;-65
2022/04/15 09:48:38;;;;;;;0.70;0.70;;;;;;;;;;5023700;28;20303;-64
2022/04/15 09:51:25;;;;;;;0.70;0.70;;;;;;;;;;5022945;28;20211;-64
2022/04/15 09:54:21;;;;;;;0.63;0.63;;;;;;;;;;5021388;28;20315;-65
2022/04/15 09:57:13;;;;;;;0.80;0.80;;;;;;;;;;5022621;28;20318;-65
2022/04/15 10:00:02;;;;;;;0.73;0.73;;;;;;;;;;5021388;28;20360;-64
2022/04/15 10:02:52;;;;;;;1.00;1.00;;;;;;;;;;5020398;28;20821;-64
2022/04/15 10:05:42;;;;;;;0.60;0.60;;;;;;;;;;5022971;28;20782;-67
2022/04/15 10:08:29;;;;;;;0.60;0.60;;;;;;;;;;5020740;28;20697;-64
2022/04/15 10:11:16;;;;;;;1.60;0.80;;;;;;;;;;5026520;28;20234;-64
2022/04/15 10:14:04;;;;;;;0.50;0.50;;;;;;;;;;5027834;28;20679;-65
2022/04/15 10:16:51;;;;;;;0.63;0.63;;;;;;;;;;5027424;28;20209;-64
2022/04/15 10:19:38;;;;;;;0.80;0.80;;;;;;;;;;5019913;28;20787;-64
2022/04/15 10:22:27;;;;;;;0.50;0.50;;;;;;;;;;5024341;28;20290;-64
2022/04/15 10:25:15;;;;;;;1.70;0.70;;;;;;;;;;5022636;28;20301;-64
2022/04/15 10:28:05;;;;;;;0.70;0.70;;;;;;;;;;5023211;28;20340;-64
2022/04/15 10:30:54;;;;;;;0.70;0.70;;;;;;;;;;5025432;28;20703;-64
2022/04/15 10:33:42;;;;;;;2.97;0.70;;;;;;;;;;5027302;28;20205;-64
2022/04/15 10:36:33;;;;;;;0.60;0.60;;;;;;;;;;5023944;28;20275;-64
2022/04/15 10:39:22;;;;;;;0.83;0.83;;;;;;;;;;5023421;28;20236;-64
2022/04/15 10:42:18;;;;;;;0.80;0.80;;;;;;;;;;5023194;28;20252;-64
2022/04/15 10:45:26;;;;;;;0.70;0.60;;;;;;;;;;5024297;28;20259;-65
2022/04/15 10:48:13;;;;;;;0.67;0.67;;;;;;;;;;5021632;28;20321;-64
2022/04/15 10:51:21;;;;;;;0.80;0.80;;;;;;;;;;5024465;28;20885;-64
2022/04/15 10:54:45;;;;;;;0.60;0.60;;;;;;;;;;5021376;28;20307;-64
2022/04/15 10:57:34;;;;;;;0.50;0.50;;;;;;;;;;5025555;28;20666;-64
2022/04/15 11:03:42;;;;;;;1.17;0.80;;;;;;;;;;4949464;29;20235;-65
2022/04/15 11:06:29;;;;;;;1.53;0.60;;;;;;;;;;4950798;29;20290;-65
2022/04/15 11:09:16;;;;;;;0.60;0.60;;;;;;;;;;5012503;28;20720;-65
2022/04/15 11:12:06;;;;;;;0.50;0.50;;;;;;;;;;5022590;28;20705;-64
2022/04/15 11:14:53;;;;;;;0.57;0.57;;;;;;;;;;5027663;28;20300;-64
2022/04/15 11:17:41;;;;;;;0.80;0.80;;;;;;;;;;5019089;28;20206;-64
2022/04/15 11:20:30;;;;;;;0.50;0.50;;;;;;;;;;5022323;28;20294;-64
2022/04/15 11:23:17;;;;;;;0.67;0.50;;;;;;;;;;5021620;28;20317;-64
2022/04/15 11:26:05;;;;;;;0.53;0.50;;;;;;;;;;5019508;28;20283;-64
2022/04/15 11:28:55;;;;;;;0.80;0.47;;;;;;;;;;5019535;28;20210;-64
2022/04/15 11:31:45;;;;;;;0.47;0.47;;;;;;;;;;5021772;28;20232;-64
2022/04/15 11:34:33;;;;;;;0.60;0.60;;;;;;;;;;5026421;28;20209;-64
2022/04/15 11:37:20;;;;;;;0.50;0.50;;;;;;;;;;5020148;28;20342;-64
2022/04/15 11:40:08;;;;;;;0.60;0.60;;;;;;;;;;5022755;28;20260;-64
2022/04/15 11:42:58;;;;;;;0.43;0.43;;;;;;;;;;5021299;28;20260;-63
2022/04/15 11:45:47;;;;;;;1.47;0.77;;;;;;;;;;5017736;28;20691;-64
2022/04/15 11:48:34;;;;;;;0.43;0.43;;;;;;;;;;5016194;28;20206;-64
2022/04/15 11:51:23;;;;;;;0.40;0.40;;;;;;;;;;5020300;28;20258;-64
2022/04/15 11:54:09;;;;;;;0.60;0.60;;;;;;;;;;5001599;28;20230;-64
2022/04/15 11:56:57;;;;;;;0.60;0.60;;;;;;;;;;5001342;28;20284;-65
2022/04/15 11:59:46;;;;;;;0.83;0.60;;;;;;;;;;5005242;28;20259;-64
2022/04/15 12:02:34;;;;;;;0.70;0.50;;;;;;;;;;5004276;28;20592;-64
2022/04/15 12:05:21;;;;;;;0.50;0.50;;;;;;;;;;5001465;28;20648;-64
2022/04/15 12:08:09;;;;;;;0.50;0.50;;;;;;;;;;5003452;28;20214;-64
2022/04/15 12:10:56;;;;;;;0.30;0.30;;;;;;;;;;4997763;28;20215;-65
2022/04/15 12:13:43;;;;;;;0.50;0.50;;;;;;;;;;5003285;28;20289;-64
2022/04/15 12:16:32;;;;;;;2.00;0.50;;;;;;;;;;4996614;28;20268;-64
2022/04/15 12:19:21;;;;;;;0.60;0.60;;;;;;;;;;5004074;28;20202;-64
2022/04/15 12:22:08;;;;;;;0.67;0.50;;;;;;;;;;4999994;28;20213;-64
2022/04/15 12:25:13;;;;;;;0.37;0.37;;;;;;;;;;5003250;28;20211;-64
2022/04/15 12:29:47;;;;;;;0.53;0.53;;;;;;;;;;5005071;28;20217;-64
2022/04/15 12:31:30;;;;;;;0.50;0.50;;;;;;;;;;4997355;28;20612;-64
2022/04/15 12:34:17;;;;;;;0.50;0.50;;;;;;;;;;4997624;28;20689;-64
2022/04/15 12:37:06;;;;;;;0.60;0.50;;;;;;;;;;4998290;28;20317;-64
2022/04/15 12:39:53;;;;;;;0.90;0.50;;;;;;;;;;4999838;28;20331;-64
2022/04/15 12:42:41;;;;;;;0.40;0.40;;;;;;;;;;4997592;28;20292;-64
2022/04/15 12:45:28;;;;;;;0.40;0.40;;;;;;;;;;4997100;28;20205;-65
2022/04/15 12:48:15;;;;;;;1.40;0.63;;;;;;;;;;5001836;28;20237;-65
2022/04/15 12:51:02;;;;;;;0.83;0.67;;;;;;;;;;4999716;28;20871;-64
2022/04/15 12:53:50;;;;;;;0.97;0.40;;;;;;;;;;5021411;28;20244;-65
2022/04/15 12:56:37;;;;;;;0.37;0.37;;;;;;;;;;5018630;28;20241;-64
2022/04/15 12:59:27;;;;;;;0.33;0.33;;;;;;;;;;5019014;28;20568;-65
2022/04/15 13:02:14;;;;;;;0.63;0.60;;;;;;;;;;5019887;28;20708;-65
2022/04/15 13:05:01;;;;;;;0.90;0.50;;;;;;;;;;5020537;28;20287;-65
2022/04/15 13:07:50;;;;;;;0.40;0.40;;;;;;;;;;5020577;28;20200;-64
2022/04/15 13:10:38;;;;;;;0.40;0.40;;;;;;;;;;5019206;28;20308;-65
2022/04/15 13:13:25;;;;;;;1.07;0.60;;;;;;;;;;5018945;28;20206;-64
2022/04/15 13:16:12;;;;;;;0.50;0.50;;;;;;;;;;5021270;28;20380;-64
2022/04/15 13:18:59;;;;;;;0.60;0.60;;;;;;;;;;5022221;28;20208;-64
2022/04/15 13:21:46;;;;;;;0.50;0.50;;;;;;;;;;5018387;28;20688;-64
2022/04/15 13:24:33;;;;;;;0.30;0.30;;;;;;;;;;5023245;28;20322;-64
2022/04/15 13:27:22;;;;;;;0.40;0.40;;;;;;;;;;5022291;28;20624;-64
2022/04/15 13:30:09;;;;;;;0.50;0.40;;;;;;;;;;5019703;28;20235;-64
2022/04/15 13:33:02;;;;;;;0.40;0.40;;;;;;;;;;5018968;28;20672;-64
2022/04/15 13:35:49;;;;;;;0.50;0.50;;;;;;;;;;5016797;28;20289;-64
2022/04/15 13:38:36;;;;;;;0.50;0.50;;;;;;;;;;5021097;28;20214;-64
2022/04/15 13:41:26;;;;;;;0.40;0.40;;;;;;;;;;5017862;28;20270;-65
2022/04/15 13:44:14;;;;;;;0.57;0.47;;;;;;;;;;5023132;28;20233;-64
2022/04/15 13:47:03;;;;;;;0.40;0.40;;;;;;;;;;5017702;28;20212;-64
2022/04/15 13:49:50;;;;;;;0.40;0.40;;;;;;;;;;5023904;28;20270;-64
2022/04/15 13:58:45;;;;;;;2.13;0.60;;;;;;;;;;5019407;28;20212;-65
2022/04/15 14:01:34;;;;;;;1.40;0.40;;;;;;;;;;5024338;28;20285;-65
2022/04/15 14:04:21;;;;;;;0.53;0.40;;;;;;;;;;5020578;28;20686;-64
2022/04/15 14:07:08;;;;;;;0.40;0.40;;;;;;;;;;5022678;28;20754;-65
2022/04/15 14:09:55;;;;;;;0.50;0.50;;;;;;;;;;5017568;28;20844;-64
2022/04/15 14:12:42;;;;;;;0.50;0.50;;;;;;;;;;5019561;28;20582;-64
2022/04/15 14:15:29;;;;;;;2.50;0.37;;;;;;;;;;5023812;28;20209;-64
2022/04/15 14:18:18;;;;;;;0.80;0.50;;;;;;;;;;5018470;28;20232;-64
2022/04/15 14:21:05;;;;;;;1.07;0.30;;;;;;;;;;5014010;28;20252;-65
2022/04/15 14:23:52;;;;;;;0.87;0.50;;;;;;;;;;5017781;28;20267;-64
2022/04/15 14:26:39;;;;;;;0.60;0.60;;;;;;;;;;5020567;28;20716;-65
2022/04/15 14:29:26;;;;;;;0.40;0.37;;;;;;;;;;5019519;28;20236;-64
2022/04/15 14:32:13;;;;;;;0.40;0.40;;;;;;;;;;5022049;28;20234;-64
2022/04/15 14:35:01;;;;;;;0.83;0.40;;;;;;;;;;5025234;28;20685;-64
2022/04/15 14:37:48;;;;;;;0.43;0.43;;;;;;;;;;5023775;28;20263;-66
2022/04/15 14:40:35;;;;;;;0.60;0.60;;;;;;;;;;5022600;28;20692;-64
2022/04/15 14:43:22;;;;;;;0.70;0.70;;;;;;;;;;5023468;28;20885;-65
2022/04/15 14:46:10;;;;;;;0.80;0.80;;;;;;;;;;5025383;28;20622;-65
2022/04/15 14:48:57;;;;;;;0.43;0.43;;;;;;;;;;5025924;28;20204;-65
2022/04/15 14:51:45;;;;;;;0.47;0.47;;;;;;;;;;5023095;28;20205;-64
2022/04/15 14:54:33;;;;;;;0.60;0.60;;;;;;;;;;5024617;28;20688;-64
2022/04/15 14:57:19;;;;;;;0.60;0.60;;;;;;;;;;5025592;28;20799;-65
2022/04/15 15:00:09;;;;;;;0.60;0.60;;;;;;;;;;5021414;28;20235;-64
2022/04/15 15:02:56;;;;;;;0.57;0.57;;;;;;;;;;5021101;28;20216;-64
2022/04/15 15:05:43;;;;;;;2.77;0.73;;;;;;;;;;5025162;28;20216;-65
2022/04/15 15:08:32;;;;;;;0.50;0.50;;;;;;;;;;5025557;28;20247;-65
2022/04/15 15:11:19;;;;;;;0.60;0.60;;;;;;;;;;5023410;28;20340;-65
2022/04/15 15:14:06;;;;;;;0.60;0.60;;;;;;;;;;5021307;28;20207;-65
2022/04/15 15:16:53;;;;;;;0.73;0.73;;;;;;;;;;5015094;28;20265;-64
2022/04/15 15:19:39;;;;;;;0.33;0.33;;;;;;;;;;5018446;28;20325;-66
2022/04/15 15:22:26;;;;;;;0.40;0.40;;;;;;;;;;5019427;28;20295;-65
2022/04/15 15:31:37;;;;;;;1.60;1.50;;;;;;;;;;5021299;28;20212;-65
2022/04/15 15:34:24;;;;;;;1.23;1.23;;;;;;;;;;5020317;28;20264;-64
2022/04/15 15:37:11;;;;;;;1.10;1.10;;;;;;;;;;5018384;28;20207;-64
2022/04/15 15:39:59;;;;;;;2.10;1.30;;;;;;;;;;5023525;28;20250;-65
2022/04/15 15:42:48;;;;;;;3.07;2.87;;;;;;;;;;5019376;28;20253;-65
2022/04/15 15:45:36;;;;;;;3.83;3.53;;;;;;;;;;5019495;28;20669;-65
2022/04/15 15:48:23;;;;;;;3.50;3.30;;;;;;;;;;5015862;28;20221;-65
2022/04/15 15:51:10;;;;;;;4.80;4.40;;;;;;;;;;5019222;28;20215;-72
2022/04/15 15:53:57;;;;;;;3.70;3.50;;;;;;;;;;5018113;28;20722;-64
2022/04/15 15:56:44;;;;;;;3.90;3.70;;;;;;;;;;5016609;28;20211;-64
2022/04/15 15:59:32;;;;;;;4.47;3.70;;;;;;;;;;5024284;28;20207;-64
2022/04/15 16:02:19;;;;;;;3.90;3.60;;;;;;;;;;5021874;28;20676;-65
2022/04/15 16:05:08;;;;;;;3.53;3.33;;;;;;;;;;5018157;28;20886;-65
2022/04/15 16:07:56;;;;;;;4.03;3.73;;;;;;;;;;5016592;28;20218;-66
2022/04/15 16:10:43;;;;;;;3.67;3.47;;;;;;;;;;5020754;28;20289;-65
2022/04/15 16:13:30;;;;;;;3.40;3.17;;;;;;;;;;5021093;28;20236;-64
2022/04/15 16:16:18;;;;;;;3.57;3.20;;;;;;;;;;5023975;28;20292;-64
2022/04/15 16:19:05;;;;;;;3.57;3.10;;;;;;;;;;5020758;28;20730;-65
2022/04/15 16:21:52;;;;;;;3.60;2.90;;;;;;;;;;5022257;28;20690;-65
2022/04/15 16:24:39;;;;;;;3.47;2.90;;;;;;;;;;5019494;28;20707;-68
2022/04/15 16:27:26;;;;;;;2.80;2.60;;;;;;;;;;5016352;28;20348;-65
2022/04/15 16:30:13;;;;;;;2.80;2.60;;;;;;;;;;5017681;28;20247;-65
2022/04/15 16:33:01;;;;;;;2.50;2.40;;;;;;;;;;5014385;28;20354;-65
2022/04/15 16:35:48;;;;;;;2.37;2.27;;;;;;;;;;5018814;28;20232;-65
2022/04/15 16:38:35;;;;;;;2.20;2.00;;;;;;;;;;5015826;28;20730;-65
2022/04/15 16:41:23;;;;;;;2.07;1.97;;;;;;;;;;5015164;28;20682;-65
2022/04/15 16:44:11;;;;;;;2.27;2.07;;;;;;;;;;5016572;28;20232;-65
2022/04/15 16:46:59;;;;;;;3.23;2.30;;;;;;;;;;5020383;28;20784;-64
2022/04/15 16:49:47;;;;;;;1.60;1.50;;;;;;;;;;5021347;28;20224;-65
2022/04/15 16:52:35;;;;;;;2.60;1.83;;;;;;;;;;5022081;28;20756;-64
2022/04/15 16:58:40;;;;;;;5.87;2.10;;;;;;;;;;5021058;28;20205;-64
2022/04/15 17:01:28;;;;;;;1.57;1.47;;;;;;;;;;5011036;28;20252;-65
2022/04/15 17:04:15;;;;;;;1.60;1.60;;;;;;;;;;5013905;28;20229;-66
2022/04/15 17:07:04;;;;;;;1.53;1.43;;;;;;;;;;5012219;28;20197;-65